Coleridge, North Carolina
Current Conditions -  °F | °C
As of 6:35 PM on Monday 20 Oct 2014 (Local Time) from K5W8 Reporting Station
Clear Clear  
Wind Chill: 61°   Ceiling: Unl
Heat Index: 61°   Visibility: 10mi
Dew Point: 51°   Wind: 0mph
Humidity: 70%   Direction: NA
Pressure: 29.99"   Gusts: NA
Location:  35.6832°N, 79.6174°W
Report Text: K5W8 202235Z AUTO 00000KT 10SM CLR 16/11 A2999 RMK AO2 T01620107
Loading
Personal Weather Stations






























Interactive Weather Map New forecast layout! Learn more

10-Day Weather Forecast

Advertisements
Track Severe Weather on mobile